createdAt,value
2019-03-10T00:01:48.986Z,7.55
2019-03-10T00:04:17.465Z,7.15
2019-03-10T00:06:45.942Z,5.80
2019-03-10T00:09:14.205Z,6.67
2019-03-10T00:11:42.410Z,6.05
2019-03-10T00:14:10.637Z,6.65
2019-03-10T00:16:38.858Z,5.58
2019-03-10T00:19:07.126Z,6.75
2019-03-10T00:21:35.339Z,7.70
2019-03-10T00:24:03.659Z,6.58
2019-03-10T00:26:31.884Z,6.95
2019-03-10T00:29:00.120Z,6.45
2019-03-10T00:31:28.569Z,5.42
2019-03-10T00:33:56.806Z,6.97
2019-03-10T00:36:25.017Z,5.95
2019-03-10T00:39:11.117Z,5.90
2019-03-10T00:41:42.585Z,5.37
2019-03-10T00:44:30.255Z,5.47
2019-03-10T00:47:01.751Z,5.47
2019-03-10T00:49:41.929Z,6.55
2019-03-10T00:52:16.290Z,5.60
2019-03-10T00:54:44.524Z,5.37
2019-03-10T00:57:12.751Z,6.15
2019-03-10T00:59:40.984Z,7.25
2019-03-10T01:02:09.227Z,6.17
2019-03-10T01:04:37.473Z,7.50
2019-03-10T01:07:05.681Z,6.95
2019-03-10T01:09:33.917Z,6.00
2019-03-10T01:12:02.228Z,5.25
2019-03-10T01:14:30.449Z,6.67
2019-03-10T01:16:58.681Z,6.17
2019-03-10T01:19:26.895Z,5.95
2019-03-10T01:21:55.146Z,6.05
2019-03-10T01:24:23.380Z,6.75
2019-03-10T01:26:51.829Z,6.40
2019-03-10T01:29:20.078Z,6.45
2019-03-10T01:32:11.670Z,6.47
2019-03-10T01:35:00.412Z,6.75
2019-03-10T01:37:28.695Z,6.42
2019-03-10T01:39:56.937Z,6.53
2019-03-10T01:42:25.157Z,7.00
2019-03-10T01:44:53.371Z,5.30
2019-03-10T01:47:21.834Z,6.00
2019-03-10T01:49:50.070Z,7.12
2019-03-10T01:52:18.341Z,6.08
2019-03-10T01:54:46.603Z,5.22
2019-03-10T01:57:14.825Z,5.67
2019-03-10T01:59:43.077Z,6.25
2019-03-10T02:02:11.282Z,6.67
2019-03-10T02:04:39.540Z,4.83
2019-03-10T02:07:08.049Z,5.60
2019-03-10T02:09:36.260Z,5.85
2019-03-10T02:12:04.734Z,5.97
2019-03-10T02:14:32.994Z,5.90
2019-03-10T02:17:01.267Z,4.80
2019-03-10T02:19:29.490Z,6.25
2019-03-10T02:21:57.734Z,5.00
2019-03-10T02:24:25.954Z,5.08
2019-03-10T02:26:54.176Z,6.20
2019-03-10T02:29:22.382Z,5.62
2019-03-10T02:31:50.627Z,5.05
2019-03-10T02:34:18.849Z,5.55
2019-03-10T02:36:47.099Z,5.50
2019-03-10T02:39:15.311Z,5.53
2019-03-10T02:41:43.572Z,4.97
2019-03-10T02:44:11.782Z,6.62
2019-03-10T02:46:40.034Z,5.58
2019-03-10T02:49:08.258Z,5.75
2019-03-10T02:51:36.502Z,5.35
2019-03-10T02:54:04.726Z,5.70
2019-03-10T02:56:32.953Z,6.30
2019-03-10T02:59:01.178Z,6.03
2019-03-10T03:01:29.428Z,4.03
2019-03-10T03:03:57.655Z,5.28
2019-03-10T03:06:25.875Z,5.20
2019-03-10T03:08:54.330Z,4.55
2019-03-10T03:11:22.562Z,5.58
2019-03-10T03:13:51.016Z,4.65
2019-03-10T03:16:19.246Z,3.52
2019-03-10T03:18:47.497Z,4.25
2019-03-10T03:21:15.788Z,3.37
2019-03-10T03:23:44.014Z,3.77
2019-03-10T03:26:12.270Z,3.15
2019-03-10T03:28:40.479Z,2.55
2019-03-10T03:31:08.702Z,2.70
2019-03-10T03:33:36.963Z,2.45
2019-03-10T03:36:13.855Z,2.55
2019-03-10T03:38:57.144Z,2.67
2019-03-10T03:41:26.219Z,3.70
2019-03-10T03:43:54.473Z,2.75
2019-03-10T03:46:22.976Z,2.60
2019-03-10T03:48:51.230Z,2.50
2019-03-10T03:51:19.451Z,3.22
2019-03-10T03:53:47.672Z,3.42
2019-03-10T03:56:15.925Z,3.37
2019-03-10T03:58:44.134Z,3.00
2019-03-10T04:01:16.695Z,2.98
2019-03-10T04:03:44.963Z,3.30
2019-03-10T04:06:13.183Z,3.98
2019-03-10T04:08:41.560Z,3.22
2019-03-10T04:11:09.790Z,3.50
2019-03-10T04:13:38.090Z,3.75
2019-03-10T04:16:06.327Z,3.27
2019-03-10T04:18:34.557Z,3.83
2019-03-10T04:21:02.775Z,3.25
2019-03-10T04:23:30.990Z,3.52
2019-03-10T04:25:59.209Z,3.72
2019-03-10T04:28:27.454Z,3.80
2019-03-10T04:30:55.990Z,3.72
2019-03-10T04:33:24.260Z,3.02
2019-03-10T04:35:52.454Z,3.00
2019-03-10T04:38:20.700Z,3.17
2019-03-10T04:40:48.914Z,3.85
2019-03-10T04:43:17.386Z,3.17
2019-03-10T04:45:45.610Z,3.90
2019-03-10T04:48:13.852Z,4.50
2019-03-10T04:50:42.063Z,4.00
2019-03-10T04:53:10.290Z,3.90
2019-03-10T04:55:45.886Z,3.22
2019-03-10T04:58:15.930Z,3.00
2019-03-10T05:00:45.786Z,3.30
2019-03-10T05:03:14.037Z,3.40
2019-03-10T05:05:42.252Z,3.17
2019-03-10T05:08:10.482Z,4.17
2019-03-10T05:10:38.711Z,3.65
2019-03-10T05:13:06.933Z,2.62
2019-03-10T05:15:35.161Z,2.33
2019-03-10T05:18:03.395Z,3.10
2019-03-10T05:20:31.626Z,2.75
2019-03-10T05:23:22.181Z,2.52
2019-03-10T05:25:50.424Z,2.58
2019-03-10T05:28:18.642Z,2.70
2019-03-10T05:30:46.862Z,2.85
2019-03-10T05:33:15.094Z,2.15
2019-03-10T05:35:43.351Z,3.17
2019-03-10T05:38:11.824Z,2.70
2019-03-10T05:40:40.322Z,3.25
2019-03-10T05:43:08.561Z,3.27
2019-03-10T05:45:36.800Z,2.67
2019-03-10T05:48:05.021Z,3.35
2019-03-10T05:50:33.485Z,2.65
2019-03-10T05:53:01.696Z,3.77
2019-03-10T05:55:29.942Z,2.98
2019-03-10T05:57:58.159Z,2.58
2019-03-10T06:00:26.400Z,3.47
2019-03-10T06:02:54.995Z,4.47
2019-03-10T06:05:23.473Z,3.30
2019-03-10T06:07:51.684Z,3.35
2019-03-10T06:10:19.918Z,3.22
2019-03-10T06:12:48.144Z,3.27
2019-03-10T06:15:16.622Z,3.05
2019-03-10T06:17:44.895Z,3.10
2019-03-10T06:20:13.142Z,3.37
2019-03-10T06:22:41.337Z,3.35
2019-03-10T06:25:09.578Z,3.10
2019-03-10T06:27:38.072Z,4.10
2019-03-10T06:30:09.563Z,3.17
2019-03-10T06:32:38.036Z,3.90
2019-03-10T06:35:06.640Z,3.70
2019-03-10T06:37:34.857Z,3.65
2019-03-10T06:40:03.090Z,4.03
2019-03-10T06:42:31.306Z,3.33
2019-03-10T06:44:59.605Z,3.62
2019-03-10T06:47:27.822Z,4.85
2019-03-10T06:49:56.061Z,4.45
2019-03-10T06:52:24.300Z,3.70
2019-03-10T06:54:52.541Z,3.60
2019-03-10T06:57:20.865Z,4.53
2019-03-10T06:59:50.079Z,4.08
2019-03-10T07:02:18.747Z,4.65
2019-03-10T07:04:47.217Z,4.72
2019-03-10T07:07:15.506Z,5.62
2019-03-10T07:09:43.724Z,5.22
2019-03-10T07:12:11.961Z,6.45
2019-03-10T07:14:40.202Z,6.40
2019-03-10T07:17:08.429Z,6.62
2019-03-10T07:19:36.658Z,7.30
2019-03-10T07:22:04.882Z,7.20
2019-03-10T07:24:33.381Z,7.10
2019-03-10T07:27:02.330Z,7.00
2019-03-10T07:29:32.485Z,7.90
2019-03-10T07:32:02.352Z,7.90
2019-03-10T07:34:40.993Z,7.85
2019-03-10T07:37:11.102Z,8.53
2019-03-10T07:39:46.698Z,8.65
2019-03-10T07:42:16.579Z,9.65
2019-03-10T07:44:52.588Z,10.60
2019-03-10T07:47:28.281Z,12.60
2019-03-10T07:50:04.186Z,12.73
2019-03-10T07:52:34.092Z,14.10
2019-03-10T07:55:04.013Z,14.00
2019-03-10T07:57:37.101Z,13.88
2019-03-10T08:00:21.647Z,12.75
2019-03-10T08:02:51.517Z,14.20
2019-03-10T08:05:21.374Z,13.70
2019-03-10T08:07:54.207Z,12.37
2019-03-10T08:10:24.110Z,10.80
2019-03-10T08:12:54.002Z,11.25
2019-03-10T08:15:23.875Z,10.98
2019-03-10T08:17:53.745Z,7.83
2019-03-10T08:20:26.578Z,6.47
2019-03-10T08:23:02.247Z,6.67
2019-03-10T08:25:44.433Z,7.90
2019-03-10T08:28:21.352Z,5.67
2019-03-10T08:30:57.094Z,5.15
2019-03-10T08:33:26.976Z,4.83
2019-03-10T08:36:02.578Z,4.97
2019-03-10T08:38:41.160Z,4.47
2019-03-10T08:41:17.477Z,3.87
2019-03-10T08:43:47.365Z,3.85
2019-03-10T08:46:23.250Z,2.42
2019-03-10T08:49:01.962Z,2.50
2019-03-10T08:51:31.955Z,2.00
2019-03-10T08:54:02.794Z,1.75
2019-03-10T08:56:35.554Z,1.40
2019-03-10T08:59:17.169Z,1.27
2019-03-10T09:01:49.439Z,1.02
2019-03-10T09:04:34.172Z,1.45
2019-03-10T09:07:19.965Z,1.25
2019-03-10T09:09:58.799Z,1.20
2019-03-10T09:12:28.676Z,1.10
2019-03-10T09:15:07.508Z,1.52
2019-03-10T09:17:46.088Z,1.37
2019-03-10T09:20:15.955Z,1.47
2019-03-10T09:23:00.505Z,1.22
2019-03-10T09:25:45.860Z,0.95
2019-03-10T09:28:18.683Z,1.50
2019-03-10T09:30:57.414Z,1.40
2019-03-10T09:33:27.302Z,1.42
2019-03-10T09:35:59.889Z,1.70
2019-03-10T09:38:32.470Z,1.50
2019-03-10T09:41:18.510Z,1.62
2019-03-10T09:44:04.826Z,1.20
2019-03-10T09:46:34.686Z,1.72
2019-03-10T09:49:13.295Z,1.70
2019-03-10T09:51:49.131Z,1.62
2019-03-10T09:54:31.084Z,1.40
2019-03-10T09:57:16.049Z,2.33
2019-03-10T09:59:48.699Z,1.80
2019-03-10T10:02:21.422Z,1.40
2019-03-10T10:05:00.415Z,1.65
2019-03-10T10:07:39.365Z,1.30
2019-03-10T10:10:24.938Z,1.55
2019-03-10T10:12:57.634Z,1.72
2019-03-10T10:15:33.149Z,1.95
2019-03-10T10:18:08.910Z,1.77
2019-03-10T10:20:44.485Z,1.77
2019-03-10T10:23:32.164Z,2.83
2019-03-10T10:26:04.658Z,2.15
2019-03-10T10:28:37.097Z,2.22
2019-03-10T10:31:15.863Z,2.12
2019-03-10T10:33:57.590Z,2.98
2019-03-10T10:36:27.518Z,2.58
2019-03-10T10:39:13.695Z,2.15
2019-03-10T10:41:43.651Z,2.22
2019-03-10T10:44:19.411Z,2.37
2019-03-10T10:46:55.404Z,2.17
2019-03-10T10:49:31.424Z,2.20
2019-03-10T10:52:17.469Z,3.08
2019-03-10T10:54:50.314Z,2.70
2019-03-10T10:57:25.998Z,2.30
2019-03-10T10:59:55.906Z,2.85
2019-03-10T11:02:28.920Z,2.47
2019-03-10T11:04:58.795Z,2.40
2019-03-10T11:07:40.648Z,1.90
2019-03-10T11:10:12.436Z,2.80
2019-03-10T11:15:23.491Z,2.58
2019-03-10T11:18:09.419Z,2.30
2019-03-10T11:20:33.771Z,2.40
2019-03-10T11:23:06.705Z,2.70
2019-03-10T11:25:39.321Z,2.67
2019-03-10T11:28:25.239Z,2.33
2019-03-10T11:31:13.853Z,2.37
2019-03-10T11:33:43.045Z,2.50
2019-03-10T11:36:24.768Z,2.22
2019-03-10T11:39:06.476Z,2.60
2019-03-10T11:41:52.471Z,2.70
2019-03-10T11:44:22.351Z,2.17
2019-03-10T11:47:01.313Z,2.40
2019-03-10T11:49:31.178Z,3.80
2019-03-10T11:52:10.030Z,3.08
2019-03-10T11:54:39.892Z,3.20
2019-03-10T11:57:25.626Z,3.20
2019-03-10T11:59:55.501Z,3.00
2019-03-10T12:02:28.345Z,3.47
2019-03-10T12:04:58.366Z,3.02
2019-03-10T12:07:34.018Z,3.27
2019-03-10T12:10:02.267Z,3.20
2019-03-10T12:12:30.485Z,3.40
2019-03-10T12:14:58.725Z,3.52
2019-03-10T12:17:27.184Z,4.00
2019-03-10T12:19:55.449Z,3.22
2019-03-10T12:22:23.705Z,3.62
2019-03-10T12:24:51.959Z,3.17
2019-03-10T12:27:20.180Z,3.00
2019-03-10T12:29:48.556Z,3.22
2019-03-10T12:32:16.860Z,3.65
2019-03-10T12:34:45.144Z,3.72
2019-03-10T12:37:13.410Z,4.12
2019-03-10T12:39:41.648Z,3.50
2019-03-10T12:42:09.878Z,2.85
2019-03-10T12:44:38.155Z,3.10
2019-03-10T12:47:06.483Z,2.83
2019-03-10T12:49:34.747Z,2.55
2019-03-10T12:52:02.983Z,2.95
2019-03-10T12:54:31.218Z,2.17
2019-03-10T12:56:59.529Z,2.22
2019-03-10T12:59:27.837Z,2.65
2019-03-10T13:01:56.170Z,3.52
2019-03-10T13:04:24.423Z,2.92
2019-03-10T13:06:52.716Z,3.12
2019-03-10T13:09:20.948Z,3.42
2019-03-10T13:11:49.213Z,2.80
2019-03-10T13:14:17.503Z,3.12
2019-03-10T13:16:45.746Z,3.42
2019-03-10T13:19:14.100Z,3.25
2019-03-10T13:21:42.508Z,3.25
2019-03-10T13:24:10.803Z,2.87
2019-03-10T13:26:41.460Z,3.08
2019-03-10T13:29:09.008Z,2.40
2019-03-10T13:31:37.383Z,2.60
2019-03-10T13:34:05.676Z,2.85
2019-03-10T13:36:33.956Z,2.47
2019-03-10T13:39:02.190Z,1.80
2019-03-10T13:41:30.426Z,2.87
2019-03-10T13:43:58.666Z,2.87
2019-03-10T13:46:27.114Z,2.40
2019-03-10T13:48:55.344Z,2.50
2019-03-10T13:51:23.816Z,2.08
2019-03-10T13:53:52.316Z,2.85
2019-03-10T13:56:20.530Z,1.27
2019-03-10T13:58:48.832Z,2.30
2019-03-10T14:01:17.093Z,1.35
2019-03-10T14:03:45.315Z,1.45
2019-03-10T14:06:13.529Z,1.07
2019-03-10T14:08:41.834Z,0.88
2019-03-10T14:11:10.104Z,1.00
2019-03-10T14:13:38.778Z,1.55
2019-03-10T14:16:07.057Z,0.37
2019-03-10T14:18:35.279Z,0.88
2019-03-10T14:21:03.534Z,0.70
2019-03-10T14:23:31.781Z,0.70
2019-03-10T14:26:00.012Z,0.90
2019-03-10T14:28:28.309Z,0.93
2019-03-10T14:30:56.544Z,0.90
2019-03-10T14:33:24.842Z,0.72
2019-03-10T14:35:53.091Z,0.85
2019-03-10T14:38:21.392Z,0.70
2019-03-10T14:40:49.616Z,0.75
2019-03-10T14:43:17.973Z,0.70
2019-03-10T14:45:46.255Z,0.80
2019-03-10T14:48:14.536Z,0.70
2019-03-10T14:50:42.852Z,0.98
2019-03-10T14:53:11.216Z,0.65
2019-03-10T14:55:39.466Z,0.60
2019-03-10T14:58:07.699Z,0.62
2019-03-10T15:00:35.936Z,0.70
2019-03-10T15:03:04.248Z,1.20
2019-03-10T15:05:32.515Z,1.00
2019-03-10T15:08:00.905Z,0.80
2019-03-10T15:10:29.237Z,1.20
2019-03-10T15:12:57.547Z,0.88
2019-03-10T15:15:25.826Z,1.02
2019-03-10T15:17:54.123Z,1.30
2019-03-10T15:20:22.400Z,1.20
2019-03-10T15:22:50.718Z,1.42
2019-03-10T15:25:24.961Z,0.88
2019-03-10T15:27:52.506Z,1.17
2019-03-10T15:30:23.141Z,1.32
2019-03-10T15:32:51.553Z,1.10
2019-03-10T15:35:19.793Z,0.90
2019-03-10T15:37:48.053Z,0.80
2019-03-10T15:40:17.070Z,0.95
2019-03-10T15:42:45.362Z,1.05
2019-03-10T15:45:16.954Z,0.82
2019-03-10T15:47:45.249Z,0.90
2019-03-10T15:50:18.838Z,0.90
2019-03-10T15:52:47.111Z,0.93
2019-03-10T15:55:15.757Z,1.22
2019-03-10T15:57:50.053Z,1.20
2019-03-10T16:00:19.701Z,0.80
2019-03-10T16:02:47.996Z,0.80
2019-03-10T16:05:16.226Z,0.95
2019-03-10T16:07:44.499Z,1.22
2019-03-10T16:10:13.797Z,0.82
2019-03-10T16:12:42.063Z,0.78
2019-03-10T16:15:21.528Z,0.75
2019-03-10T16:17:49.940Z,0.98
2019-03-10T16:20:18.241Z,1.15
2019-03-10T16:22:46.522Z,1.02
2019-03-10T16:25:16.845Z,1.00
2019-03-10T16:27:45.099Z,1.00
2019-03-10T16:30:27.253Z,1.32
2019-03-10T16:35:23.094Z,0.98
2019-03-10T16:37:51.442Z,1.50
2019-03-10T16:40:20.616Z,1.30
2019-03-10T16:42:49.226Z,0.98
2019-03-10T16:45:22.288Z,1.17
2019-03-10T16:47:50.604Z,1.22
2019-03-10T16:50:24.011Z,1.00
2019-03-10T16:52:52.349Z,1.50
2019-03-10T16:55:20.611Z,1.47
2019-03-10T16:57:48.858Z,1.20
2019-03-10T17:00:18.828Z,1.30
2019-03-10T17:02:47.090Z,1.70
2019-03-10T17:05:16.562Z,1.27
2019-03-10T17:07:44.817Z,1.27
2019-03-10T17:10:21.123Z,1.20
2019-03-10T17:12:49.435Z,1.10
2019-03-10T17:15:19.789Z,1.00
2019-03-10T17:17:48.044Z,1.30
2019-03-10T17:20:17.207Z,1.30
2019-03-10T17:22:45.470Z,1.17
2019-03-10T17:25:14.779Z,1.60
2019-03-10T17:27:43.061Z,1.52
2019-03-10T17:30:19.444Z,1.42
2019-03-10T17:32:47.703Z,1.90
2019-03-10T17:35:16.790Z,1.27
2019-03-10T17:37:45.033Z,2.10
2019-03-10T17:40:20.537Z,1.25
2019-03-10T17:42:48.786Z,1.50
2019-03-10T17:45:18.456Z,1.35
2019-03-10T17:47:46.791Z,1.30
2019-03-10T17:50:16.515Z,1.50
2019-03-10T17:52:44.862Z,1.32
2019-03-10T17:55:18.304Z,1.30
2019-03-10T17:57:47.834Z,1.35
2019-03-10T18:00:18.722Z,1.40
2019-03-10T18:02:47.043Z,1.20
2019-03-10T18:05:15.337Z,1.65
2019-03-10T18:07:43.744Z,1.15
2019-03-10T18:10:13.757Z,1.30
2019-03-10T18:12:42.081Z,1.27
2019-03-10T18:15:11.660Z,1.32
2019-03-10T18:17:40.250Z,1.77
2019-03-10T18:20:11.925Z,1.20
2019-03-10T18:22:41.502Z,1.02
2019-03-10T18:25:11.228Z,1.00
2019-03-10T18:27:39.552Z,1.30
2019-03-10T18:30:14.011Z,1.30
2019-03-10T18:32:42.302Z,1.10
2019-03-10T18:35:10.582Z,1.47
2019-03-10T18:37:38.838Z,1.25
2019-03-10T18:40:10.666Z,1.12
2019-03-10T18:42:38.909Z,1.55
2019-03-10T18:45:10.450Z,1.65
2019-03-10T18:47:38.853Z,1.15
2019-03-10T18:50:10.231Z,1.20
2019-03-10T18:52:38.585Z,1.50
2019-03-10T18:55:09.390Z,1.32
2019-03-10T18:57:37.755Z,1.55
2019-03-10T19:00:21.279Z,1.62
2019-03-10T19:02:49.613Z,1.60
2019-03-10T19:05:17.932Z,1.52
2019-03-10T19:07:46.247Z,1.50
2019-03-10T19:10:14.739Z,1.72
2019-03-10T19:12:42.986Z,2.00
2019-03-10T19:15:16.477Z,1.72
2019-03-10T19:17:44.713Z,1.82
2019-03-10T19:20:14.144Z,2.37
2019-03-10T19:22:42.391Z,1.95
2019-03-10T19:25:12.077Z,1.72
2019-03-10T19:27:40.354Z,2.05
2019-03-10T19:30:14.901Z,1.90
2019-03-10T19:32:43.141Z,1.52
2019-03-10T19:35:11.901Z,1.80
2019-03-10T19:37:40.134Z,2.12
2019-03-10T19:40:13.186Z,1.67
2019-03-10T19:42:41.443Z,1.52
2019-03-10T19:45:15.168Z,1.35
2019-03-10T19:47:43.586Z,1.62
2019-03-10T19:50:27.607Z,1.90
2019-03-10T19:52:56.213Z,2.30
2019-03-10T19:55:24.483Z,2.27
2019-03-10T19:57:52.889Z,2.40
2019-03-10T20:00:21.565Z,2.33
2019-03-10T20:02:49.802Z,2.25
2019-03-10T20:05:18.102Z,2.45
2019-03-10T20:07:46.362Z,2.42
2019-03-10T20:10:22.729Z,2.10
2019-03-10T20:12:51.333Z,2.20
2019-03-10T20:15:21.656Z,2.95
2019-03-10T20:17:49.871Z,2.52
2019-03-10T20:20:23.083Z,2.42
2019-03-10T20:22:51.309Z,2.20
2019-03-10T20:25:19.620Z,2.95
2019-03-10T20:27:47.834Z,2.50
2019-03-10T20:30:21.199Z,2.55
2019-03-10T20:32:49.445Z,1.60
2019-03-10T20:35:17.747Z,1.62
2019-03-10T20:37:45.970Z,1.20
2019-03-10T20:40:16.064Z,1.12
2019-03-10T20:42:44.289Z,1.07
2019-03-10T20:45:12.909Z,1.27
2019-03-10T20:47:41.156Z,1.60
2019-03-10T20:50:16.959Z,1.30
2019-03-10T20:52:45.177Z,1.42
2019-03-10T20:55:14.037Z,2.17
2019-03-10T20:57:42.254Z,2.02
2019-03-10T21:00:19.378Z,2.10
2019-03-10T21:02:47.577Z,2.65
2019-03-10T21:05:15.812Z,2.47
2019-03-10T21:07:44.074Z,2.50
2019-03-10T21:10:20.182Z,2.22
2019-03-10T21:12:48.435Z,1.82
2019-03-10T21:15:20.511Z,2.87
2019-03-10T21:17:48.737Z,2.52
2019-03-10T21:20:19.291Z,2.35
2019-03-10T21:22:47.754Z,2.45
2019-03-10T21:25:24.895Z,2.50
2019-03-10T21:27:53.198Z,2.42
2019-03-10T21:30:25.837Z,2.60
2019-03-10T21:32:54.258Z,2.75
2019-03-10T21:35:22.582Z,2.80
2019-03-10T21:37:50.829Z,2.90
2019-03-10T21:40:34.226Z,3.37
2019-03-10T21:43:02.476Z,3.10
2019-03-10T21:45:30.783Z,3.20
2019-03-10T21:47:59.000Z,2.70
2019-03-10T21:50:27.270Z,2.67
2019-03-10T21:52:55.489Z,2.85
2019-03-10T21:55:23.777Z,3.30
2019-03-10T21:57:52.213Z,3.05
2019-03-10T22:00:20.624Z,3.00
2019-03-10T22:02:48.882Z,2.60
2019-03-10T22:05:17.587Z,2.50
2019-03-10T22:07:45.853Z,2.75
2019-03-10T22:10:26.410Z,2.47
2019-03-10T22:12:47.915Z,2.37
2019-03-10T22:15:19.949Z,2.40
2019-03-10T22:17:48.168Z,2.20
2019-03-10T22:20:17.014Z,1.90
2019-03-10T22:22:49.369Z,2.70
2019-03-10T22:25:15.245Z,2.47
2019-03-10T22:27:45.827Z,2.42
2019-03-10T22:30:20.605Z,2.25
2019-03-10T22:32:48.842Z,2.02
2019-03-10T22:35:17.126Z,1.80
2019-03-10T22:37:45.392Z,2.10
2019-03-10T22:40:19.622Z,2.95
2019-03-10T22:42:47.876Z,1.82
2019-03-10T22:45:18.082Z,2.25
2019-03-10T22:47:46.314Z,2.35
2019-03-10T22:50:15.203Z,2.58
2019-03-10T22:52:43.562Z,2.25
2019-03-10T22:55:12.517Z,2.20
2019-03-10T22:57:40.743Z,2.40
2019-03-10T23:00:14.362Z,2.08
2019-03-10T23:02:43.298Z,2.05
2019-03-10T23:05:11.560Z,2.58
2019-03-10T23:07:39.812Z,2.35
2019-03-10T23:10:10.965Z,2.95
2019-03-10T23:12:39.194Z,2.60
2019-03-10T23:15:09.655Z,2.35
2019-03-10T23:17:37.896Z,3.05
2019-03-10T23:20:08.947Z,3.37
2019-03-10T23:22:37.267Z,2.17
2019-03-10T23:25:06.317Z,2.52
2019-03-10T23:27:34.562Z,2.62
2019-03-10T23:30:02.783Z,2.55
2019-03-10T23:32:31.034Z,2.60
2019-03-10T23:34:59.487Z,2.37
2019-03-10T23:37:27.719Z,2.52
2019-03-10T23:39:55.929Z,2.70
2019-03-10T23:42:24.180Z,2.30
2019-03-10T23:44:52.399Z,2.75
2019-03-10T23:47:20.649Z,3.08
2019-03-10T23:49:48.898Z,2.92
2019-03-10T23:52:17.131Z,2.90
2019-03-10T23:54:45.357Z,2.70
2019-03-10T23:57:13.596Z,2.60
2019-03-10T23:59:41.834Z,2.40
